createdAt,value
2023-02-19T00:00:01.578Z,10.44
2023-02-19T00:02:30.322Z,10.39
2023-02-19T00:04:58.495Z,10.58
2023-02-19T00:07:26.870Z,10.39
2023-02-19T00:09:54.940Z,10.66
2023-02-19T00:12:23.279Z,10.23
2023-02-19T00:14:51.214Z,10.20
2023-02-19T00:17:19.614Z,10.16
2023-02-19T00:19:47.588Z,10.20
2023-02-19T00:22:16.184Z,10.31
2023-02-19T00:24:44.280Z,10.22
2023-02-19T00:27:12.558Z,10.39
2023-02-19T00:29:40.570Z,10.36
2023-02-19T00:32:08.900Z,10.18
2023-02-19T00:34:36.942Z,10.30
2023-02-19T00:37:05.294Z,10.28
2023-02-19T00:39:33.394Z,10.18
2023-02-19T00:42:01.760Z,10.37
2023-02-19T00:44:29.741Z,10.31
2023-02-19T00:46:58.065Z,10.22
2023-02-19T00:49:26.006Z,10.23
2023-02-19T00:51:54.321Z,10.36
2023-02-19T00:54:25.444Z,10.25
2023-02-19T00:56:53.662Z,10.48
2023-02-19T00:59:21.689Z,10.09
2023-02-19T01:01:50.078Z,10.08
2023-02-19T01:04:18.773Z,10.08
2023-02-19T01:06:49.119Z,10.13
2023-02-19T01:09:17.009Z,10.02
2023-02-19T01:11:45.259Z,9.98
2023-02-19T01:14:13.475Z,10.03
2023-02-19T01:16:41.671Z,10.29
2023-02-19T01:19:09.769Z,10.18
2023-02-19T01:21:38.038Z,10.35
2023-02-19T01:24:06.256Z,10.47
2023-02-19T01:26:34.477Z,10.44
2023-02-19T01:29:05.054Z,10.09
2023-02-19T01:31:33.670Z,10.32
2023-02-19T01:34:04.724Z,10.23
2023-02-19T01:36:34.510Z,10.16
2023-02-19T01:39:05.264Z,10.32
2023-02-19T01:41:38.316Z,10.03
2023-02-19T01:44:27.861Z,9.55
2023-02-19T01:46:59.131Z,9.85
2023-02-19T01:49:48.958Z,9.92
2023-02-19T01:52:27.762Z,10.09
2023-02-19T01:54:57.182Z,10.01
2023-02-19T01:57:34.300Z,9.95
2023-02-19T02:00:20.470Z,10.02
2023-02-19T02:02:52.752Z,10.23
2023-02-19T02:05:43.280Z,10.08
2023-02-19T02:08:32.214Z,9.81
2023-02-19T02:11:00.410Z,9.92
2023-02-19T02:13:29.150Z,9.95
2023-02-19T02:16:25.893Z,10.06
2023-02-19T02:19:16.475Z,9.96
2023-02-19T02:22:07.848Z,9.76
2023-02-19T02:25:15.803Z,9.68
2023-02-19T02:27:52.558Z,9.51
2023-02-19T02:30:55.835Z,9.57
2023-02-19T02:33:47.884Z,9.50
2023-02-19T02:36:24.892Z,9.48
2023-02-19T02:38:54.401Z,9.42
2023-02-19T02:41:25.436Z,9.36
2023-02-19T02:43:53.322Z,9.41
2023-02-19T02:46:35.545Z,9.42
2023-02-19T02:49:14.772Z,9.38
2023-02-19T02:51:48.073Z,9.29
2023-02-19T02:54:42.882Z,9.17
2023-02-19T02:57:16.732Z,9.47
2023-02-19T02:59:49.408Z,9.40
2023-02-19T03:02:28.309Z,9.18
2023-02-19T03:05:28.464Z,9.25
2023-02-19T03:07:59.631Z,9.26
2023-02-19T03:10:40.300Z,9.27
2023-02-19T03:13:32.772Z,9.37
2023-02-19T03:16:31.747Z,9.16
2023-02-19T03:19:19.195Z,9.19
2023-02-19T03:21:55.790Z,9.08
2023-02-19T03:24:49.040Z,9.05
2023-02-19T03:27:20.797Z,9.05
2023-02-19T03:29:57.603Z,9.23
2023-02-19T03:32:36.260Z,9.20
2023-02-19T03:35:31.460Z,9.32
2023-02-19T03:38:37.032Z,8.96
2023-02-19T03:41:20.733Z,9.02
2023-02-19T03:44:11.498Z,8.98
2023-02-19T03:47:04.105Z,8.86
2023-02-19T03:49:34.864Z,8.82
2023-02-19T03:52:23.955Z,8.89
2023-02-19T03:55:03.178Z,8.93
2023-02-19T03:57:38.970Z,9.01
2023-02-19T04:00:12.491Z,9.18
2023-02-19T04:02:46.465Z,9.14
2023-02-19T04:05:27.083Z,8.99
2023-02-19T04:08:00.713Z,9.06
2023-02-19T04:10:34.793Z,8.90
2023-02-19T04:13:10.940Z,9.16
2023-02-19T04:15:43.357Z,9.26
2023-02-19T04:18:19.995Z,8.98
2023-02-19T04:20:48.937Z,9.19
2023-02-19T04:23:24.205Z,8.98
2023-02-19T04:25:59.909Z,8.82
2023-02-19T04:28:29.268Z,8.80
2023-02-19T04:30:57.192Z,8.94
2023-02-19T04:33:25.501Z,8.71
2023-02-19T04:35:53.512Z,8.57
2023-02-19T04:38:21.758Z,8.48
2023-02-19T04:40:51.946Z,8.49
2023-02-19T04:43:21.113Z,8.47
2023-02-19T04:45:49.148Z,8.71
2023-02-19T04:48:17.454Z,8.54
2023-02-19T04:50:45.373Z,8.43
2023-02-19T04:53:13.523Z,8.43
2023-02-19T04:55:41.560Z,8.38
2023-02-19T04:58:09.860Z,8.60
2023-02-19T05:00:38.048Z,8.63
2023-02-19T05:03:06.520Z,8.92
2023-02-19T05:05:35.458Z,8.75
2023-02-19T05:08:03.871Z,8.79
2023-02-19T05:10:31.900Z,8.79
2023-02-19T05:13:00.219Z,8.69
2023-02-19T05:15:28.243Z,8.39
2023-02-19T05:17:56.621Z,8.50
2023-02-19T05:20:24.558Z,8.60
2023-02-19T05:22:52.991Z,9.01
2023-02-19T05:25:21.151Z,8.52
2023-02-19T05:27:49.768Z,8.34
2023-02-19T05:30:17.873Z,8.00
2023-02-19T05:32:46.247Z,8.55
2023-02-19T05:35:14.148Z,8.48
2023-02-19T05:37:42.397Z,8.52
2023-02-19T05:40:10.698Z,8.39
2023-02-19T05:42:39.353Z,8.39
2023-02-19T05:45:07.867Z,8.25
2023-02-19T05:47:36.186Z,8.36
2023-02-19T05:50:04.431Z,8.33
2023-02-19T05:52:33.399Z,8.14
2023-02-19T05:55:01.302Z,8.26
2023-02-19T05:57:29.510Z,8.16
2023-02-19T05:59:57.412Z,8.24
2023-02-19T06:02:25.766Z,8.14
2023-02-19T06:04:54.172Z,8.19
2023-02-19T06:07:23.953Z,8.14
2023-02-19T06:09:52.049Z,7.95
2023-02-19T06:12:20.330Z,8.20
2023-02-19T06:14:48.579Z,8.40
2023-02-19T06:17:17.402Z,8.52
2023-02-19T06:19:45.403Z,8.23
2023-02-19T06:22:15.606Z,8.42
2023-02-19T06:24:43.790Z,8.52
2023-02-19T06:27:12.141Z,8.74
2023-02-19T06:29:41.491Z,8.90
2023-02-19T06:32:09.940Z,9.03
2023-02-19T06:34:38.201Z,9.13
2023-02-19T06:37:06.628Z,9.01
2023-02-19T06:39:34.958Z,9.19
2023-02-19T06:42:03.656Z,9.12
2023-02-19T06:44:32.104Z,9.30
2023-02-19T06:47:00.405Z,9.47
2023-02-19T06:49:28.485Z,9.47
2023-02-19T06:51:57.002Z,9.61
2023-02-19T06:54:26.527Z,9.69
2023-02-19T06:56:57.300Z,9.71
2023-02-19T06:59:26.027Z,9.89
2023-02-19T07:01:54.575Z,9.82
2023-02-19T07:04:22.573Z,9.92
2023-02-19T07:06:51.374Z,10.15
2023-02-19T07:09:19.300Z,10.17
2023-02-19T07:11:47.731Z,10.36
2023-02-19T07:14:16.936Z,10.33
2023-02-19T07:16:47.682Z,10.20
2023-02-19T07:19:16.093Z,10.41
2023-02-19T07:21:44.418Z,10.44
2023-02-19T07:24:12.460Z,10.59
2023-02-19T07:26:40.734Z,10.57
2023-02-19T07:29:10.491Z,10.58
2023-02-19T07:31:38.888Z,10.52
2023-02-19T07:34:08.065Z,10.43
2023-02-19T07:36:36.312Z,10.34
2023-02-19T07:39:04.712Z,10.22
2023-02-19T07:41:33.125Z,10.33
2023-02-19T07:44:01.062Z,10.74
2023-02-19T07:46:30.379Z,10.40
2023-02-19T07:49:00.273Z,10.64
2023-02-19T07:51:28.782Z,10.59
2023-02-19T07:53:56.934Z,10.33
2023-02-19T07:56:25.354Z,9.70
2023-02-19T07:58:53.455Z,9.40
2023-02-19T08:01:44.555Z,9.23
2023-02-19T08:04:14.855Z,8.81
2023-02-19T08:06:43.623Z,8.47
2023-02-19T08:09:12.074Z,8.75
2023-02-19T08:11:58.784Z,8.64
2023-02-19T08:14:27.877Z,8.67
2023-02-19T08:16:57.046Z,8.68
2023-02-19T08:19:25.508Z,8.57
2023-02-19T08:21:54.117Z,9.20
2023-02-19T08:24:22.270Z,9.17
2023-02-19T08:26:50.896Z,9.28
2023-02-19T08:29:18.939Z,9.17
2023-02-19T08:31:47.434Z,8.98
2023-02-19T08:34:15.717Z,8.62
2023-02-19T08:36:44.531Z,8.73
2023-02-19T08:39:12.680Z,8.42
2023-02-19T08:41:41.173Z,8.94
2023-02-19T08:44:09.358Z,8.39
2023-02-19T08:46:38.153Z,9.01
2023-02-19T08:49:06.093Z,8.69
2023-02-19T08:51:34.436Z,9.17
2023-02-19T08:54:04.511Z,8.97
2023-02-19T08:56:32.845Z,8.91
2023-02-19T08:59:00.820Z,9.04
2023-02-19T09:01:29.358Z,8.93
2023-02-19T09:03:57.581Z,9.61
2023-02-19T09:06:26.003Z,9.60
2023-02-19T09:08:54.013Z,9.81
2023-02-19T09:11:22.352Z,9.87
2023-02-19T09:13:50.282Z,10.07
2023-02-19T09:16:18.585Z,10.18
2023-02-19T09:18:46.522Z,9.84
2023-02-19T09:21:14.838Z,10.07
2023-02-19T09:23:42.809Z,9.87
2023-02-19T09:26:11.659Z,10.05
2023-02-19T09:28:41.989Z,9.69
2023-02-19T09:31:15.988Z,9.88
2023-02-19T09:33:45.643Z,9.80
2023-02-19T09:36:15.695Z,9.80
2023-02-19T09:38:43.770Z,9.65
2023-02-19T09:41:31.078Z,9.64
2023-02-19T09:44:00.899Z,9.88
2023-02-19T09:46:37.570Z,10.03
2023-02-19T09:49:11.401Z,9.90
2023-02-19T09:51:44.392Z,10.19
2023-02-19T09:54:23.120Z,10.28
2023-02-19T09:56:54.549Z,10.44
2023-02-19T09:59:27.512Z,10.15
2023-02-19T10:02:14.642Z,10.20
2023-02-19T10:04:44.973Z,10.52
2023-02-19T10:07:20.278Z,10.21
2023-02-19T10:09:54.740Z,10.72
2023-02-19T10:12:31.450Z,10.56
2023-02-19T10:15:12.533Z,10.68
2023-02-19T10:17:40.795Z,10.43
2023-02-19T10:20:16.455Z,10.73
2023-02-19T10:22:45.033Z,11.28
2023-02-19T10:25:17.218Z,10.84
2023-02-19T10:27:45.608Z,11.54
2023-02-19T10:30:23.465Z,11.54
2023-02-19T10:33:24.740Z,11.48
2023-02-19T10:36:02.668Z,11.19
2023-02-19T10:38:33.261Z,11.26
2023-02-19T10:41:14.299Z,11.71
2023-02-19T10:43:51.230Z,11.41
2023-02-19T10:46:23.463Z,11.61
2023-02-19T10:49:01.411Z,11.71
2023-02-19T10:51:38.644Z,11.91
2023-02-19T10:54:27.015Z,12.28
2023-02-19T10:56:55.007Z,12.42
2023-02-19T10:59:29.027Z,12.53
2023-02-19T11:02:02.692Z,12.29
2023-02-19T11:04:35.472Z,12.21
2023-02-19T11:07:17.267Z,12.24
2023-02-19T11:09:49.854Z,12.67
2023-02-19T11:12:27.287Z,12.59
2023-02-19T11:14:56.159Z,13.37
2023-02-19T11:17:29.537Z,13.01
2023-02-19T11:20:04.890Z,13.56
2023-02-19T11:22:37.710Z,14.20
2023-02-19T11:25:19.824Z,14.32
2023-02-19T11:28:07.514Z,14.38
2023-02-19T11:30:44.260Z,14.19
2023-02-19T11:33:27.615Z,13.70
2023-02-19T11:36:21.545Z,13.59
2023-02-19T11:38:49.647Z,13.86
2023-02-19T11:41:45.756Z,13.67
2023-02-19T11:45:07.404Z,13.77
2023-02-19T11:48:00.020Z,13.48
2023-02-19T11:50:57.780Z,12.95
2023-02-19T11:53:32.412Z,13.20
2023-02-19T11:56:23.960Z,14.09
2023-02-19T11:59:13.188Z,14.46
2023-02-19T12:02:18.401Z,15.54
2023-02-19T12:05:08.552Z,14.72
2023-02-19T12:08:13.733Z,15.32
2023-02-19T12:11:12.650Z,16.09
2023-02-19T12:13:55.395Z,15.87
2023-02-19T12:16:36.633Z,16.32
2023-02-19T12:19:16.644Z,16.13
2023-02-19T12:22:06.661Z,16.59
2023-02-19T12:25:11.308Z,16.63
2023-02-19T12:28:15.765Z,16.68
2023-02-19T12:30:58.640Z,16.92
2023-02-19T12:33:38.839Z,17.04
2023-02-19T12:36:25.317Z,17.20
2023-02-19T12:39:05.727Z,17.36
2023-02-19T12:42:15.057Z,17.34
2023-02-19T12:44:54.455Z,17.57
2023-02-19T12:47:28.369Z,17.48
2023-02-19T12:50:17.177Z,17.95
2023-02-19T12:52:50.671Z,17.87
2023-02-19T12:55:26.645Z,17.85
2023-02-19T12:57:57.132Z,17.81
2023-02-19T13:00:31.640Z,17.70
2023-02-19T13:03:11.814Z,17.63
2023-02-19T13:05:58.921Z,17.18
2023-02-19T13:08:34.098Z,17.42
2023-02-19T13:11:25.265Z,16.51
2023-02-19T13:14:00.324Z,16.62
2023-02-19T13:16:33.665Z,16.28
2023-02-19T13:19:04.469Z,17.33
2023-02-19T13:21:55.272Z,18.35
2023-02-19T13:24:39.947Z,18.16
2023-02-19T13:27:42.125Z,18.05
2023-02-19T13:30:12.811Z,18.29
2023-02-19T13:33:07.781Z,17.82
2023-02-19T13:36:01.725Z,16.93
2023-02-19T13:38:30.412Z,18.05
2023-02-19T13:41:00.468Z,17.95
2023-02-19T13:43:37.514Z,19.14
2023-02-19T13:46:11.486Z,19.06
2023-02-19T13:48:43.812Z,18.24
2023-02-19T13:51:24.025Z,17.88
2023-02-19T13:54:00.421Z,18.13
2023-02-19T13:56:36.095Z,18.93
2023-02-19T13:59:23.662Z,18.79
2023-02-19T14:01:52.043Z,18.04
2023-02-19T14:04:32.475Z,18.07
2023-02-19T14:07:03.995Z,18.23
2023-02-19T14:09:40.071Z,17.68
2023-02-19T14:12:07.889Z,18.58
2023-02-19T14:14:38.258Z,18.86
2023-02-19T14:17:10.257Z,18.52
2023-02-19T14:19:59.912Z,18.15
2023-02-19T14:22:58.072Z,17.60
2023-02-19T14:25:30.516Z,17.70
2023-02-19T14:28:06.089Z,17.62
2023-02-19T14:30:47.143Z,16.55
2023-02-19T14:33:17.922Z,17.65
2023-02-19T14:35:49.600Z,17.52
2023-02-19T14:38:22.343Z,17.62
2023-02-19T14:40:53.277Z,17.59
2023-02-19T14:43:24.426Z,17.18
2023-02-19T14:45:55.026Z,16.86
2023-02-19T14:48:31.428Z,17.04
2023-02-19T14:51:12.266Z,16.68
2023-02-19T14:53:44.575Z,16.51
2023-02-19T14:56:23.469Z,16.39
2023-02-19T14:59:09.248Z,16.39
2023-02-19T15:01:38.405Z,16.40
2023-02-19T15:04:07.077Z,16.27
2023-02-19T15:06:36.218Z,16.39
2023-02-19T15:09:07.327Z,16.27
2023-02-19T15:11:36.218Z,16.12
2023-02-19T15:14:07.874Z,16.19
2023-02-19T15:16:36.797Z,16.28
2023-02-19T15:19:09.869Z,16.05
2023-02-19T15:21:44.948Z,16.11
2023-02-19T15:24:16.298Z,16.09
2023-02-19T15:26:54.498Z,15.86
2023-02-19T15:29:28.871Z,16.07
2023-02-19T15:32:00.508Z,15.93
2023-02-19T15:34:33.164Z,15.88
2023-02-19T15:37:07.368Z,16.33
2023-02-19T15:39:45.373Z,15.92
2023-02-19T15:42:21.214Z,15.83
2023-02-19T15:45:16.147Z,16.01
2023-02-19T15:48:04.654Z,15.86
2023-02-19T15:50:36.324Z,15.74
2023-02-19T15:53:22.122Z,15.38
2023-02-19T15:56:01.915Z,15.52
2023-02-19T15:58:33.203Z,15.19
2023-02-19T16:01:05.442Z,15.19
2023-02-19T16:03:35.264Z,15.11
2023-02-19T16:06:05.176Z,15.33
2023-02-19T16:08:38.781Z,15.12
2023-02-19T16:11:28.406Z,14.88
2023-02-19T16:14:29.032Z,14.88
2023-02-19T16:17:20.953Z,14.66
2023-02-19T16:20:03.597Z,14.64
2023-02-19T16:22:41.205Z,14.29
2023-02-19T16:25:24.858Z,14.48
2023-02-19T16:27:52.972Z,14.43
2023-02-19T16:30:29.370Z,14.33
2023-02-19T16:33:37.212Z,14.43
2023-02-19T16:36:26.543Z,14.02
2023-02-19T16:39:13.341Z,14.00
2023-02-19T16:41:41.474Z,13.90
2023-02-19T16:44:39.102Z,13.84
2023-02-19T16:47:16.783Z,14.04
2023-02-19T16:49:45.002Z,13.83
2023-02-19T16:52:16.046Z,13.71
2023-02-19T16:54:43.969Z,13.66
2023-02-19T16:57:12.481Z,13.71
2023-02-19T16:59:40.532Z,13.58
2023-02-19T17:02:15.596Z,13.58
2023-02-19T17:04:43.983Z,13.56
2023-02-19T17:07:17.337Z,13.26
2023-02-19T17:09:45.766Z,13.34
2023-02-19T17:12:16.177Z,13.27
2023-02-19T17:14:44.203Z,13.13
2023-02-19T17:17:12.467Z,13.20
2023-02-19T17:19:40.487Z,13.21
2023-02-19T17:22:09.017Z,13.21
2023-02-19T17:24:36.932Z,13.16
2023-02-19T17:27:06.310Z,13.04
2023-02-19T17:29:35.392Z,12.97
2023-02-19T17:32:04.029Z,12.89
2023-02-19T17:34:32.104Z,12.99
2023-02-19T17:37:00.510Z,12.73
2023-02-19T17:39:28.588Z,12.77
2023-02-19T17:41:57.240Z,12.68
2023-02-19T17:44:25.250Z,12.72
2023-02-19T17:46:53.618Z,12.91
2023-02-19T17:49:21.610Z,12.82
2023-02-19T17:51:49.888Z,12.66
2023-02-19T17:54:17.814Z,12.71
2023-02-19T17:56:46.304Z,12.66
2023-02-19T17:59:14.295Z,12.60
2023-02-19T18:01:42.782Z,12.61
2023-02-19T18:04:10.902Z,12.64
2023-02-19T18:06:39.325Z,12.65
2023-02-19T18:09:07.311Z,12.60
2023-02-19T18:11:37.302Z,12.52
2023-02-19T18:14:05.453Z,12.39
2023-02-19T18:16:33.791Z,12.36
2023-02-19T18:19:02.530Z,12.46
2023-02-19T18:21:31.347Z,12.43
2023-02-19T18:23:59.229Z,12.43
2023-02-19T18:26:27.532Z,12.52
2023-02-19T18:28:55.543Z,12.50
2023-02-19T18:31:23.934Z,12.35
2023-02-19T18:33:51.900Z,12.43
2023-02-19T18:36:20.173Z,12.31
2023-02-19T18:38:48.137Z,12.26
2023-02-19T18:41:20.196Z,12.21
2023-02-19T18:43:49.198Z,12.24
2023-02-19T18:46:21.736Z,12.15
2023-02-19T18:48:49.676Z,12.14
2023-02-19T18:51:17.973Z,12.10
2023-02-19T18:53:45.853Z,12.10
2023-02-19T18:56:14.153Z,12.22
2023-02-19T18:58:42.162Z,12.29
2023-02-19T19:01:14.200Z,12.04
2023-02-19T19:03:42.332Z,12.02
2023-02-19T19:06:10.604Z,11.86
2023-02-19T19:08:38.602Z,11.95
2023-02-19T19:11:06.870Z,12.00
2023-02-19T19:13:34.765Z,11.78
2023-02-19T19:16:03.196Z,11.91
2023-02-19T19:18:31.626Z,12.23
2023-02-19T19:21:03.603Z,12.13
2023-02-19T19:23:32.026Z,12.12
2023-02-19T19:26:00.402Z,11.88
2023-02-19T19:28:31.305Z,11.99
2023-02-19T19:31:00.359Z,12.24
2023-02-19T19:33:28.426Z,12.04
2023-02-19T19:35:56.833Z,12.25
2023-02-19T19:38:24.897Z,12.33
2023-02-19T19:40:53.241Z,12.20
2023-02-19T19:43:21.216Z,12.24
2023-02-19T19:45:50.681Z,12.25
2023-02-19T19:48:18.775Z,12.41
2023-02-19T19:50:47.313Z,12.32
2023-02-19T19:53:15.384Z,12.48
2023-02-19T19:55:44.056Z,12.21
2023-02-19T19:58:12.294Z,12.26
2023-02-19T20:00:40.649Z,12.30
2023-02-19T20:03:10.059Z,12.30
2023-02-19T20:05:38.424Z,12.32
2023-02-19T20:08:06.503Z,12.41
2023-02-19T20:10:35.203Z,12.52
2023-02-19T20:13:04.608Z,12.63
2023-02-19T20:15:33.023Z,12.62
2023-02-19T20:18:01.828Z,12.38
2023-02-19T20:20:30.792Z,12.31
2023-02-19T20:22:58.831Z,12.49
2023-02-19T20:25:27.667Z,12.25
2023-02-19T20:27:55.934Z,12.39
2023-02-19T20:30:24.933Z,12.59
2023-02-19T20:32:53.807Z,12.54
2023-02-19T20:35:22.217Z,12.58
2023-02-19T20:37:50.197Z,12.72
2023-02-19T20:40:18.837Z,12.60
2023-02-19T20:42:46.808Z,12.43
2023-02-19T20:45:16.907Z,12.30
2023-02-19T20:47:44.891Z,12.27
2023-02-19T20:50:13.291Z,12.38
2023-02-19T20:52:41.738Z,12.09
2023-02-19T20:55:10.364Z,12.20
2023-02-19T20:57:38.456Z,12.33
2023-02-19T21:00:09.015Z,12.24
2023-02-19T21:02:37.182Z,12.33
2023-02-19T21:05:05.992Z,12.33
2023-02-19T21:07:33.984Z,12.48
2023-02-19T21:10:02.458Z,12.44
2023-02-19T21:12:30.528Z,12.44
2023-02-19T21:14:58.873Z,12.60
2023-02-19T21:17:26.838Z,12.54
2023-02-19T21:19:55.096Z,12.40
2023-02-19T21:22:23.123Z,12.42
2023-02-19T21:24:53.277Z,12.36
2023-02-19T21:27:21.446Z,12.39
2023-02-19T21:29:49.896Z,12.39
2023-02-19T21:32:18.056Z,12.33
2023-02-19T21:34:46.428Z,12.18
2023-02-19T21:37:14.349Z,12.07
2023-02-19T21:39:43.028Z,12.10
2023-02-19T21:42:11.045Z,12.05
2023-02-19T21:44:39.693Z,12.18
2023-02-19T21:47:08.501Z,12.14
2023-02-19T21:49:36.734Z,12.33
2023-02-19T21:52:04.759Z,12.25
2023-02-19T21:54:33.046Z,12.59
2023-02-19T21:57:04.007Z,12.30
2023-02-19T21:59:32.561Z,12.31
2023-02-19T22:02:00.592Z,12.28
2023-02-19T22:04:29.063Z,12.32
2023-02-19T22:06:57.363Z,12.46
2023-02-19T22:09:25.772Z,12.58
2023-02-19T22:11:53.694Z,12.67
2023-02-19T22:14:22.024Z,12.58
2023-02-19T22:16:50.049Z,12.64
2023-02-19T22:19:18.312Z,12.57
2023-02-19T22:21:46.588Z,12.53
2023-02-19T22:24:18.157Z,12.39
2023-02-19T22:26:46.606Z,12.50
2023-02-19T22:29:15.826Z,12.66
2023-02-19T22:31:44.774Z,12.48
2023-02-19T22:34:13.470Z,12.40
2023-02-19T22:36:42.272Z,12.29
2023-02-19T22:39:23.510Z,12.40
2023-02-19T22:41:52.646Z,12.35
2023-02-19T22:44:21.023Z,12.29
2023-02-19T22:46:54.849Z,12.20
2023-02-19T22:49:24.336Z,12.19
2023-02-19T22:51:58.389Z,12.28
2023-02-19T22:54:27.253Z,12.35
2023-02-19T22:56:55.856Z,12.26
2023-02-19T22:59:24.312Z,12.21
2023-02-19T23:01:52.909Z,12.25
2023-02-19T23:04:22.494Z,12.42
2023-02-19T23:06:50.982Z,12.54
2023-02-19T23:09:23.681Z,12.36
2023-02-19T23:11:52.558Z,12.38
2023-02-19T23:14:22.464Z,12.36
2023-02-19T23:16:50.386Z,12.43
2023-02-19T23:19:18.804Z,12.41
2023-02-19T23:21:47.037Z,12.33
2023-02-19T23:24:16.145Z,12.42
2023-02-19T23:26:49.878Z,12.30
2023-02-19T23:29:25.343Z,12.40
2023-02-19T23:31:54.772Z,12.47
2023-02-19T23:34:24.772Z,12.61
2023-02-19T23:36:52.775Z,12.46
2023-02-19T23:39:22.244Z,12.43
2023-02-19T23:41:53.262Z,12.41
2023-02-19T23:44:22.857Z,12.08
2023-02-19T23:46:52.206Z,12.14
2023-02-19T23:49:20.783Z,11.86
2023-02-19T23:51:48.777Z,11.79
2023-02-19T23:54:17.048Z,12.17
2023-02-19T23:56:45.156Z,12.18
2023-02-19T23:59:13.788Z,12.32
